This is the latest recevied weather packets stored in our database for station/object K4CRS-13. If no packets are shown the sender has not sent any weather packets the latest 1 day(s).
| Time | Temp. | Humidity | Pressure | Rain* | Wind** | Luminosity | Snow |
|---|---|---|---|---|---|---|---|
| 1778084273 | 21.11° C | 99% | 1047.1 hPa | 0 mm | - | 157 W/m² | - |
| 1778083668 | 20.56° C | 99% | 1047 hPa | 0 mm | - | 198 W/m² | - |
| 1778083063 | 20.56° C | 99% | 1047 hPa | 0 mm | - | 148 W/m² | - |
| 1778080113 | 19.44° C | 99% | 1047.5 hPa | 0 mm | - | 66 W/m² | - |
| 1778077086 | 18.89° C | 98% | 1047.5 hPa | 1.27 mm | - | 32 W/m² | - |
| 1778076784 | 18.89° C | 98% | 1047.4 hPa | 0 mm | - | 32 W/m² | - |
| 1778076178 | 18.89° C | 98% | 1047.6 hPa | 0 mm | - | 45 W/m² | - |
| 1778075875 | 18.89° C | 98% | 1047.6 hPa | 0 mm | - | 73 W/m² | - |
| 1778075571 | 18.89° C | 98% | 1047.7 hPa | 0 mm | - | 47 W/m² | - |
| 1778075268 | 18.89° C | 97% | 1047.6 hPa | 0 mm | - | 66 W/m² | - |
| 1778074358 | 18.89° C | 97% | 1047.8 hPa | 0 mm | - | 55 W/m² | - |
| 1778073752 | 18.89° C | 97% | 1047.7 hPa | 0 mm | - | 48 W/m² | - |
| 1778072843 | 18.89° C | 96% | 1047.2 hPa | 4.83 mm | - | 114 W/m² | - |
| 1778072540 | 18.33° C | 96% | 1047.6 hPa | 25.91 mm | - | 45 W/m² | - |
| 1778072238 | 18.89° C | 96% | 1047.7 hPa | 21.59 mm | - | 15 W/m² | - |
| 1778071028 | 20° C | 95% | 1047 hPa | 0 mm | - | 7 W/m² | - |
| 1778070121 | 20° C | 93% | 1046.6 hPa | 1.78 mm | - | 9 W/m² | - |
| 1778068910 | 20° C | 92% | 1046.8 hPa | 0 mm | - | 6 W/m² | - |
| 1778068306 | 20° C | 92% | 1046.6 hPa | 0 mm | - | 4 W/m² | - |
| 1778068003 | 20° C | 92% | 1046.5 hPa | 0 mm | - | 2 W/m² | - |
| 1778067701 | 20° C | 92% | 1046.4 hPa | 0 mm | - | 3 W/m² | - |
| 1778066792 | 20° C | 91% | 1045.7 hPa | 0 mm | - | 2 W/m² | - |
| 1778066490 | 20° C | 91% | 1045.7 hPa | 0 mm | - | 1 W/m² | - |
| 1778065885 | 20° C | 91% | 1045.7 hPa | 0 mm | - | 1 W/m² | - |
| 1778065582 | 20° C | 91% | 1045.5 hPa | 0 mm | - | 0 W/m² | - |
* Rain latest hour (hover to see other rain measurements)
** Current wind speed in m/s (hover to see current wind gust speed)